Time,TemperatureF,DewpointF,PressureIn,WindDirection,WindDirectionDegrees,WindSpeedMPH,WindSpeedGustMPH,Humidity,HourlyPrecipIn,Conditions,Clouds,dailyrainin,SoftwareType,DateUTC
2013-07-20 00:05:00,73.6,13.8,29.73,North,0,0.0,0.0,1,0.00,,,0.00,WUHU216HW,2013-07-20 04:05:00,
2013-07-20 00:35:00,73.6,13.8,29.73,North,0,0.0,0.0,1,0.00,,,0.00,WUHU216HW,2013-07-20 04:35:00,
2013-07-20 01:05:00,73.8,14.0,29.73,North,0,0.0,0.0,1,0.00,,,0.00,WUHU216HW,2013-07-20 05:05:00,
2013-07-20 01:35:00,73.8,14.0,29.72,North,0,0.0,0.0,1,0.00,,,0.00,WUHU216HW,2013-07-20 05:35:00,
2013-07-20 02:05:00,73.8,14.0,29.72,North,0,0.0,0.0,1,0.00,,,0.00,WUHU216HW,2013-07-20 06:05:00,
2013-07-20 02:35:00,74.0,14.0,29.71,North,0,0.0,0.0,1,0.00,,,0.00,WUHU216HW,2013-07-20 06:35:00,
2013-07-20 03:05:00,74.2,14.2,29.70,North,0,0.0,0.0,1,0.00,,,0.00,WUHU216HW,2013-07-20 07:05:00,
2013-07-20 03:35:00,74.2,14.2,29.70,North,0,0.0,0.0,1,0.00,,,0.00,WUHU216HW,2013-07-20 07:35:00,
2013-07-20 04:05:00,74.3,14.3,29.69,North,0,0.0,0.0,1,0.00,,,0.00,WUHU216HW,2013-07-20 08:05:00,
2013-07-20 04:35:00,74.5,14.4,29.68,North,0,0.0,0.0,1,0.00,,,0.00,WUHU216HW,2013-07-20 08:35:00,
2013-07-20 05:05:00,74.5,14.4,29.68,North,0,0.0,0.0,1,0.00,,,0.00,WUHU216HW,2013-07-20 09:05:00,
2013-07-20 05:35:00,74.5,14.4,29.68,North,0,0.0,0.0,1,0.00,,,0.00,WUHU216HW,2013-07-20 09:35:00,
2013-07-20 06:05:00,74.5,14.4,29.69,North,0,0.0,0.0,1,0.00,,,0.00,WUHU216HW,2013-07-20 10:05:00,
2013-07-20 06:35:00,74.3,14.3,29.69,North,0,0.0,0.0,1,0.00,,,0.00,WUHU216HW,2013-07-20 10:35:00,
2013-07-20 07:05:00,74.3,14.3,29.71,North,0,0.0,0.0,1,0.00,,,0.00,WUHU216HW,2013-07-20 11:05:00,
2013-07-20 07:35:00,74.5,14.4,29.72,North,0,0.0,0.0,1,0.00,,,0.00,WUHU216HW,2013-07-20 11:35:00,
2013-07-20 08:05:00,74.7,14.6,29.72,North,0,0.0,0.0,1,0.00,,,0.00,WUHU216HW,2013-07-20 12:05:00,
2013-07-20 08:35:00,75.2,14.9,29.72,North,0,0.0,0.0,1,0.00,,,0.00,WUHU216HW,2013-07-20 12:35:00,
2013-07-20 09:05:00,75.8,15.4,29.73,North,0,0.0,0.0,1,0.00,,,0.00,WUHU216HW,2013-07-20 13:05:00,
2013-07-20 09:35:00,76.7,16.1,29.73,North,0,0.0,0.0,1,0.00,,,0.00,WUHU216HW,2013-07-20 13:35:00,
2013-07-20 10:05:00,78.1,17.1,29.73,North,0,0.0,0.0,1,0.00,,,0.00,WUHU216HW,2013-07-20 14:05:00,
2013-07-20 10:35:00,79.6,18.2,29.74,North,0,0.0,0.0,1,0.00,,,0.00,WUHU216HW,2013-07-20 14:35:00,
2013-07-20 11:05:00,82.1,20.3,29.74,North,0,0.0,0.0,1,0.00,,,0.00,WUHU216HW,2013-07-20 15:05:00,
2013-07-20 11:35:00,83.2,21.1,29.73,North,0,0.0,0.0,1,0.00,,,0.00,WUHU216HW,2013-07-20 15:35:00,
2013-07-20 12:05:00,83.2,21.1,29.73,North,0,0.0,0.0,1,0.00,,,0.00,WUHU216HW,2013-07-20 16:05:00,
2013-07-20 12:35:00,83.3,21.2,29.73,North,0,0.0,0.0,1,0.00,,,0.00,WUHU216HW,2013-07-20 16:35:00,
2013-07-20 13:05:00,83.5,21.2,29.72,North,0,0.0,0.0,1,0.00,,,0.00,WUHU216HW,2013-07-20 17:05:00,
2013-07-20 13:35:00,84.1,21.7,29.71,North,0,0.0,0.0,1,0.00,,,0.00,WUHU216HW,2013-07-20 17:35:00,
2013-07-20 14:05:00,85.7,23.0,29.69,North,0,0.0,0.0,1,0.00,,,0.00,WUHU216HW,2013-07-20 18:05:00,
2013-07-20 14:35:00,86.2,23.4,29.68,North,0,0.0,0.0,1,0.00,,,0.00,WUHU216HW,2013-07-20 18:35:00,
2013-07-20 15:05:00,87.8,24.7,29.67,North,0,0.0,0.0,1,0.00,,,0.00,WUHU216HW,2013-07-20 19:05:00,
2013-07-20 15:35:00,90.0,26.2,29.67,North,0,0.0,0.0,1,0.00,,,0.00,WUHU216HW,2013-07-20 19:35:00,
2013-07-20 16:05:00,83.2,21.1,29.68,North,0,0.0,0.0,1,0.00,,,0.00,WUHU216HW,2013-07-20 20:05:00,
2013-07-20 16:35:00,79.6,18.2,29.66,North,0,0.0,0.0,1,0.04,,,0.00,WUHU216HW,2013-07-20 20:35:00,
2013-07-20 17:05:00,80.3,18.8,29.66,North,0,0.0,0.0,1,0.04,,,0.04,WUHU216HW,2013-07-20 21:05:00,
2013-07-20 17:35:00,80.1,18.6,29.64,North,0,0.0,0.0,1,0.00,,,0.04,WUHU216HW,2013-07-20 21:35:00,
2013-07-20 18:05:00,79.4,18.1,29.67,North,0,0.0,0.0,1,0.00,,,0.04,WUHU216HW,2013-07-20 22:05:00,
2013-07-20 18:35:00,79.0,17.8,29.68,North,0,0.0,0.0,1,0.00,,,0.04,WUHU216HW,2013-07-20 22:35:00,
2013-07-20 19:05:00,77.4,16.7,29.69,North,0,0.0,0.0,1,0.00,,,0.04,WUHU216HW,2013-07-20 23:05:00,
2013-07-20 19:35:00,76.9,16.2,29.69,North,0,0.0,0.0,1,0.00,,,0.04,WUHU216HW,2013-07-20 23:35:00,
2013-07-20 20:05:00,77.0,16.4,29.69,North,0,0.0,0.0,1,0.00,,,0.04,WUHU216HW,2013-07-21 00:05:00,
2013-07-20 20:35:00,77.0,16.4,29.69,North,0,0.0,0.0,1,0.00,,,0.04,WUHU216HW,2013-07-21 00:35:00,
2013-07-20 21:05:00,77.0,16.4,29.69,North,0,0.0,0.0,1,0.00,,,0.04,WUHU216HW,2013-07-21 01:05:00,
2013-07-20 21:35:00,76.7,16.1,29.69,North,0,0.0,0.0,1,0.00,,,0.04,WUHU216HW,2013-07-21 01:35:00,
2013-07-20 22:05:00,76.7,16.1,29.68,North,0,0.0,0.0,1,0.00,,,0.04,WUHU216HW,2013-07-21 02:05:00,
2013-07-20 22:35:00,76.7,16.1,29.68,North,0,0.0,0.0,1,0.00,,,0.04,WUHU216HW,2013-07-21 02:35:00,
2013-07-20 23:05:00,76.5,15.9,29.69,North,0,0.0,0.0,1,0.00,,,0.04,WUHU216HW,2013-07-21 03:05:00,
2013-07-20 23:35:00,76.5,15.9,29.70,North,0,0.0,0.0,1,0.00,,,0.04,WUHU216HW,2013-07-21 03:35:00,